MOL Explorer — 3EKT8 — position and weather

sailwx.info

Track history (hours):
 
Tides and Currents Weather Stations Pressure Air Temp Water Temp Dewpoint Dewpoint Depression Visibility Wind Speed Wind Dir Waves Ship Positions

MOL Explorer

Last reported at 2016-Aug-30 14:05 UTC. Time now 2016-Aug-30 15:07 UTC.
Position N 22°11' E 114°12'.

Length 293 m; draft 11 m.

Type: Ship (hazmat cat A). MMSI: 372827000.

Date/timePositionNaut miles runAvg speedWind from/ knotsBaromVisibWave heightAir tempDewpointWater temp
2016-Aug-30 14:05N 22°11' E 114°12'711.7
2016-Aug-30 13:29N 22°08' E 114°19'26213.0
2016-Aug-29 17:20N 23°59' E 118°37'2514.0
2016-Aug-29 15:31N 24°16' E 118°58'  
2016-Aug-26 11:24N 34°42' E 139°31'1518.2
2016-Aug-26 10:34N 34°56' E 139°39'1616.4
2016-Aug-26 09:33N 35°11' E 139°45'1212.1
2016-Aug-26 08:33N 35°23' E 139°42'4 3.6
2016-Aug-26 07:32N 35°26' E 139°41'0 0.0
2016-Aug-26 06:32N 35°26' E 139°41'0 0.0
2016-Aug-26 04:32N 35°26' E 139°41'0 0.0
2016-Aug-26 03:32N 35°26' E 139°41'0 0.0
2016-Aug-26 02:32N 35°26' E 139°41'0 0.0
2016-Aug-26 01:32N 35°26' E 139°41'0 0.0
2016-Aug-26 00:32N 35°26' E 139°41'0 0.0
2016-Aug-25 23:32N 35°26' E 139°41'0 0.0
2016-Aug-25 22:32N 35°26' E 139°41'2 1.6
2016-Aug-25 21:33N 35°26' E 139°43'9 9.3
2016-Aug-25 20:34N 35°33' E 139°50'5 4.8
2016-Aug-25 19:31N 35°36' E 139°46'0 0.0
2016-Aug-25 18:31N 35°36' E 139°46'0 0.0
2016-Aug-25 17:31N 35°36' E 139°46'0 0.0
2016-Aug-25 16:31N 35°36' E 139°46'0 0.0
2016-Aug-25 15:31N 35°36' E 139°46'0 0.0
2016-Aug-25 14:31N 35°36' E 139°46'0 0.0
2016-Aug-25 13:31N 35°36' E 139°46'0 0.0
2016-Aug-25 12:31N 35°36' E 139°46'0 0.0
2016-Aug-25 11:31N 35°36' E 139°46'0 0.0
2016-Aug-25 10:31N 35°36' E 139°46'0 0.0
2016-Aug-25 09:31N 35°36' E 139°46'0 0.0
2016-Aug-25 08:31N 35°36' E 139°46'0 0.0
2016-Aug-25 07:31N 35°36' E 139°46'0 0.0
2016-Aug-25 06:31N 35°36' E 139°46'0 0.0
2016-Aug-25 04:31N 35°36' E 139°46'0 0.0
2016-Aug-25 03:31N 35°36' E 139°46'0 0.0
2016-Aug-25 02:31N 35°36' E 139°46'0 0.0
2016-Aug-25 01:31N 35°36' E 139°46'0 0.0
2016-Aug-25 00:31N 35°36' E 139°46'0 0.0
2016-Aug-24 23:31N 35°36' E 139°46'1 0.8
2016-Aug-24 22:33N 35°36' E 139°47'7 7.4
2016-Aug-24 21:33N 35°30' E 139°53'1211.6
2016-Aug-24 20:33N 35°21' E 139°45'1211.8
2016-Aug-24 19:33N 35°09' E 139°46'1413.6
2016-Aug-24 18:34N 34°56' E 139°40'1312.6
2016-Aug-24 17:33N 34°45' E 139°33'234 7.5
2016-Aug-23 10:31N 33°53' E 134°57'1717.9
2016-Aug-23 09:33N 34°10' E 134°57'1716.7
2016-Aug-23 08:33N 34°26' E 135°04'1716.5
2016-Aug-23 07:33N 34°40' E 135°15'0 0.4
2016-Aug-23 06:32N 34°39' E 135°15'0 0.0
2016-Aug-23 05:32N 34°39' E 135°15'0 0.0
2016-Aug-23 04:32N 34°39' E 135°15'0 0.0
2016-Aug-23 03:32N 34°39' E 135°15'0 0.0
2016-Aug-23 02:26N 34°39' E 135°15'0 0.0
2016-Aug-23 01:32N 34°39' E 135°15'0 0.0
2016-Aug-23 00:32N 34°39' E 135°15'0 0.0
2016-Aug-22 23:32N 34°39' E 135°15'3 2.7
2016-Aug-22 22:33N 34°38' E 135°17'8 7.6
2016-Aug-22 21:33N 34°38' E 135°27'0 0.0
2016-Aug-22 10:06N 34°38' E 135°26'0 0.0
2016-Aug-22 02:24N 34°38' E 135°26'1 0.2
2016-Aug-21 22:33N 34°39' E 135°26'10 9.7
2016-Aug-21 21:33N 34°33' E 135°16'1817.9
2016-Aug-21 20:33N 34°20' E 135°01'1212.0
2016-Aug-21 19:33N 34°08' E 134°60'1111.1
2016-Aug-21 18:33N 33°57' E 134°59'4 4.2
2016-Aug-21 17:33N 33°53' E 134°59'  
Track history (hours):
 
Tides and Currents Weather Stations Pressure Air Temp Water Temp Dewpoint Dewpoint Depression Visibility Wind Speed Wind Dir Waves Ship Positions

MOL Explorer

Last reported at 2016-Aug-30 14:05 UTC. Time now 2016-Aug-30 15:07 UTC.
Position N 22°11' E 114°12'.

Length 293 m; draft 11 m.

Type: Ship (hazmat cat A). MMSI: 372827000.

Date/timePositionNaut miles runAvg speedWind from/ knotsBaromVisibWave heightAir tempDewpointWater temp
2016-Aug-30 14:05N 22°11' E 114°12'711.7
2016-Aug-30 13:29N 22°08' E 114°19'26213.0
2016-Aug-29 17:20N 23°59' E 118°37'2514.0
2016-Aug-29 15:31N 24°16' E 118°58'  
2016-Aug-26 11:24N 34°42' E 139°31'1518.2
2016-Aug-26 10:34N 34°56' E 139°39'1616.4
2016-Aug-26 09:33N 35°11' E 139°45'1212.1
2016-Aug-26 08:33N 35°23' E 139°42'4 3.6
2016-Aug-26 07:32N 35°26' E 139°41'0 0.0
2016-Aug-26 06:32N 35°26' E 139°41'0 0.0
2016-Aug-26 04:32N 35°26' E 139°41'0 0.0
2016-Aug-26 03:32N 35°26' E 139°41'0 0.0
2016-Aug-26 02:32N 35°26' E 139°41'0 0.0
2016-Aug-26 01:32N 35°26' E 139°41'0 0.0
2016-Aug-26 00:32N 35°26' E 139°41'0 0.0
2016-Aug-25 23:32N 35°26' E 139°41'0 0.0
2016-Aug-25 22:32N 35°26' E 139°41'2 1.6
2016-Aug-25 21:33N 35°26' E 139°43'9 9.3
2016-Aug-25 20:34N 35°33' E 139°50'5 4.8
2016-Aug-25 19:31N 35°36' E 139°46'0 0.0
2016-Aug-25 18:31N 35°36' E 139°46'0 0.0
2016-Aug-25 17:31N 35°36' E 139°46'0 0.0
2016-Aug-25 16:31N 35°36' E 139°46'0 0.0
2016-Aug-25 15:31N 35°36' E 139°46'0 0.0
2016-Aug-25 14:31N 35°36' E 139°46'0 0.0
2016-Aug-25 13:31N 35°36' E 139°46'0 0.0
2016-Aug-25 12:31N 35°36' E 139°46'0 0.0
2016-Aug-25 11:31N 35°36' E 139°46'0 0.0
2016-Aug-25 10:31N 35°36' E 139°46'0 0.0
2016-Aug-25 09:31N 35°36' E 139°46'0 0.0
2016-Aug-25 08:31N 35°36' E 139°46'0 0.0
2016-Aug-25 07:31N 35°36' E 139°46'0 0.0
2016-Aug-25 06:31N 35°36' E 139°46'0 0.0
2016-Aug-25 04:31N 35°36' E 139°46'0 0.0
2016-Aug-25 03:31N 35°36' E 139°46'0 0.0
2016-Aug-25 02:31N 35°36' E 139°46'0 0.0
2016-Aug-25 01:31N 35°36' E 139°46'0 0.0
2016-Aug-25 00:31N 35°36' E 139°46'0 0.0
2016-Aug-24 23:31N 35°36' E 139°46'1 0.8
2016-Aug-24 22:33N 35°36' E 139°47'7 7.4
2016-Aug-24 21:33N 35°30' E 139°53'1211.6
2016-Aug-24 20:33N 35°21' E 139°45'1211.8
2016-Aug-24 19:33N 35°09' E 139°46'1413.6
2016-Aug-24 18:34N 34°56' E 139°40'1312.6
2016-Aug-24 17:33N 34°45' E 139°33'234 7.5
2016-Aug-23 10:31N 33°53' E 134°57'1717.9
2016-Aug-23 09:33N 34°10' E 134°57'1716.7
2016-Aug-23 08:33N 34°26' E 135°04'1716.5
2016-Aug-23 07:33N 34°40' E 135°15'0 0.4
2016-Aug-23 06:32N 34°39' E 135°15'0 0.0
2016-Aug-23 05:32N 34°39' E 135°15'0 0.0
2016-Aug-23 04:32N 34°39' E 135°15'0 0.0
2016-Aug-23 03:32N 34°39' E 135°15'0 0.0
2016-Aug-23 02:26N 34°39' E 135°15'0 0.0
2016-Aug-23 01:32N 34°39' E 135°15'0 0.0
2016-Aug-23 00:32N 34°39' E 135°15'0 0.0
2016-Aug-22 23:32N 34°39' E 135°15'3 2.7
2016-Aug-22 22:33N 34°38' E 135°17'8 7.6
2016-Aug-22 21:33N 34°38' E 135°27'0 0.0
2016-Aug-22 10:06N 34°38' E 135°26'0 0.0
2016-Aug-22 02:24N 34°38' E 135°26'1 0.2
2016-Aug-21 22:33N 34°39' E 135°26'10 9.7
2016-Aug-21 21:33N 34°33' E 135°16'1817.9
2016-Aug-21 20:33N 34°20' E 135°01'1212.0
2016-Aug-21 19:33N 34°08' E 134°60'1111.1
2016-Aug-21 18:33N 33°57' E 134°59'4 4.2
2016-Aug-21 17:33N 33°53' E 134°59'  

Dump ship's entire track history